createdAt,value
2022-10-01T00:00:08.967Z,25.25
2022-10-01T00:02:39.198Z,25.02
2022-10-01T00:05:10.957Z,25.67
2022-10-01T00:07:40.007Z,21.05
2022-10-01T00:10:09.955Z,27.20
2022-10-01T00:12:46.757Z,24.52
2022-10-01T00:15:16.972Z,25.10
2022-10-01T00:17:45.339Z,23.60
2022-10-01T00:20:14.855Z,25.02
2022-10-01T00:22:43.308Z,23.08
2022-10-01T00:25:12.108Z,22.05
2022-10-01T00:27:41.857Z,21.55
2022-10-01T00:30:12.242Z,24.65
2022-10-01T00:32:41.317Z,22.13
2022-10-01T00:35:10.433Z,24.70
2022-10-01T00:37:38.907Z,22.00
2022-10-01T00:40:08.483Z,23.75
2022-10-01T00:42:36.870Z,23.70
2022-10-01T00:45:07.326Z,23.45
2022-10-01T00:47:40.150Z,22.85
2022-10-01T00:50:11.950Z,24.25
2022-10-01T00:52:42.121Z,24.75
2022-10-01T00:55:13.472Z,20.70
2022-10-01T00:57:42.803Z,22.95
2022-10-01T01:00:14.340Z,23.17
2022-10-01T01:02:42.916Z,22.73
2022-10-01T01:05:13.904Z,22.40
2022-10-01T01:07:46.131Z,22.27
2022-10-01T01:10:15.216Z,25.75
2022-10-01T01:12:52.099Z,23.00
2022-10-01T01:15:26.177Z,23.17
2022-10-01T01:17:57.996Z,25.00
2022-10-01T01:20:41.959Z,26.20
2022-10-01T01:23:39.048Z,29.45
2022-10-01T01:26:13.895Z,21.33
2022-10-01T01:28:45.408Z,26.00
2022-10-01T01:31:16.814Z,28.58
2022-10-01T01:33:47.533Z,28.80
2022-10-01T01:36:18.669Z,27.15
2022-10-01T01:38:51.767Z,31.33
2022-10-01T01:41:21.485Z,37.55
2022-10-01T01:43:53.776Z,29.42
2022-10-01T01:46:22.662Z,30.70
2022-10-01T01:48:53.414Z,27.67
2022-10-01T01:51:26.184Z,28.90
2022-10-01T01:53:55.453Z,27.77
2022-10-01T01:56:24.041Z,27.13
2022-10-01T01:58:54.874Z,32.67
2022-10-01T02:01:34.838Z,26.23
2022-10-01T02:04:04.994Z,29.20
2022-10-01T02:06:37.077Z,31.13
2022-10-01T02:09:14.312Z,25.88
2022-10-01T02:11:49.741Z,29.48
2022-10-01T02:14:24.221Z,33.38
2022-10-01T02:16:57.978Z,30.08
2022-10-01T02:19:28.970Z,34.50
2022-10-01T02:22:00.994Z,36.58
2022-10-01T02:24:37.863Z,34.35
2022-10-01T02:27:11.514Z,36.47
2022-10-01T02:29:42.359Z,32.63
2022-10-01T02:32:11.286Z,32.38
2022-10-01T02:34:40.852Z,34.35
2022-10-01T02:37:09.989Z,42.60
2022-10-01T02:39:41.027Z,39.80
2022-10-01T02:42:10.207Z,38.60
2022-10-01T02:44:42.671Z,39.88
2022-10-01T02:47:15.705Z,38.22
2022-10-01T02:49:44.234Z,37.83
2022-10-01T02:52:17.791Z,35.42
2022-10-01T02:54:50.431Z,36.00
2022-10-01T02:57:27.563Z,40.20
2022-10-01T03:00:00.181Z,32.22
2022-10-01T03:02:29.501Z,36.50
2022-10-01T03:04:58.140Z,35.33
2022-10-01T03:07:27.244Z,35.83
2022-10-01T03:09:55.627Z,36.63
2022-10-01T03:12:24.569Z,37.95
2022-10-01T03:14:54.202Z,35.90
2022-10-01T03:17:23.996Z,34.58
2022-10-01T03:19:52.424Z,29.33
2022-10-01T03:22:22.791Z,28.55
2022-10-01T03:24:51.588Z,23.48
2022-10-01T03:27:20.012Z,31.75
2022-10-01T03:29:48.819Z,32.85
2022-10-01T03:32:17.604Z,28.27
2022-10-01T03:34:47.499Z,29.88
2022-10-01T03:37:16.051Z,33.30
2022-10-01T03:39:44.629Z,31.20
2022-10-01T03:42:13.058Z,31.30
2022-10-01T03:44:41.435Z,27.05
2022-10-01T03:47:09.927Z,30.02
2022-10-01T03:49:38.538Z,26.40
2022-10-01T03:52:08.314Z,28.38
2022-10-01T03:54:36.813Z,24.90
2022-10-01T03:57:06.140Z,32.10
2022-10-01T03:59:35.020Z,27.65
2022-10-01T04:02:03.735Z,27.38
2022-10-01T04:04:32.159Z,26.23
2022-10-01T04:07:00.522Z,25.48
2022-10-01T04:09:30.311Z,25.83
2022-10-01T04:11:59.335Z,24.77
2022-10-01T04:14:27.764Z,25.25
2022-10-01T04:16:56.164Z,27.20
2022-10-01T04:19:24.519Z,22.58
2022-10-01T04:21:52.854Z,25.38
2022-10-01T04:24:21.372Z,24.33
2022-10-01T04:26:52.098Z,23.95
2022-10-01T04:29:20.508Z,25.80
2022-10-01T04:31:48.954Z,28.25
2022-10-01T04:34:17.371Z,27.73
2022-10-01T04:36:45.727Z,28.70
2022-10-01T04:39:14.219Z,26.52
2022-10-01T04:41:42.664Z,27.23
2022-10-01T04:44:12.569Z,31.88
2022-10-01T04:46:41.059Z,27.75
2022-10-01T04:49:09.530Z,33.13
2022-10-01T04:51:37.937Z,30.85
2022-10-01T04:54:06.323Z,27.73
2022-10-01T04:56:34.704Z,28.88
2022-10-01T04:59:03.305Z,29.83
2022-10-01T05:01:33.325Z,29.25
2022-10-01T05:04:02.224Z,34.70
2022-10-01T05:06:30.617Z,31.77
2022-10-01T05:08:58.943Z,31.23
2022-10-01T05:11:27.344Z,31.98
2022-10-01T05:13:55.698Z,26.23
2022-10-01T05:16:24.112Z,31.02
2022-10-01T05:18:54.906Z,36.13
2022-10-01T05:21:23.280Z,29.63
2022-10-01T05:23:51.919Z,33.90
2022-10-01T05:26:20.309Z,30.13
2022-10-01T05:28:48.661Z,29.83
2022-10-01T05:31:18.897Z,30.20
2022-10-01T05:33:47.347Z,27.52
2022-10-01T05:36:17.435Z,29.13
2022-10-01T05:38:46.229Z,31.10
2022-10-01T05:41:14.713Z,28.90
2022-10-01T05:43:43.998Z,31.63
2022-10-01T05:46:12.916Z,29.85
2022-10-01T05:48:41.320Z,30.83
2022-10-01T05:51:09.715Z,35.22
2022-10-01T05:53:39.504Z,31.83
2022-10-01T05:56:08.336Z,34.97
2022-10-01T05:58:36.769Z,35.08
2022-10-01T06:01:05.326Z,34.65
2022-10-01T06:03:33.842Z,37.03
2022-10-01T06:06:02.234Z,35.35
2022-10-01T06:08:30.593Z,33.75
2022-10-01T06:11:03.464Z,32.83
2022-10-01T06:13:32.212Z,39.05
2022-10-01T06:16:00.668Z,40.17
2022-10-01T06:18:29.098Z,37.35
2022-10-01T06:20:59.958Z,40.60
2022-10-01T06:23:28.297Z,41.83
2022-10-01T06:25:56.954Z,33.88
2022-10-01T06:28:26.781Z,40.58
2022-10-01T06:30:55.237Z,46.28
2022-10-01T06:33:24.138Z,50.17
2022-10-01T06:35:54.123Z,37.47
2022-10-01T06:38:24.337Z,55.30
2022-10-01T06:40:54.001Z,55.22
2022-10-01T06:43:22.792Z,49.90
2022-10-01T06:45:52.868Z,55.97
2022-10-01T06:48:21.949Z,61.83
2022-10-01T06:50:52.339Z,49.63
2022-10-01T06:53:19.836Z,48.38
2022-10-01T06:55:50.034Z,49.35
2022-10-01T06:58:20.367Z,37.00
2022-10-01T07:00:49.822Z,44.65
2022-10-01T07:03:21.907Z,48.25
2022-10-01T07:05:50.892Z,36.00
2022-10-01T07:08:19.534Z,45.50
2022-10-01T07:10:47.895Z,37.75
2022-10-01T07:13:20.444Z,40.95
2022-10-01T07:15:49.215Z,51.20
2022-10-01T07:18:18.127Z,47.25
2022-10-01T07:20:49.376Z,41.58
2022-10-01T07:23:18.169Z,39.58
2022-10-01T07:25:46.846Z,40.75
2022-10-01T07:28:18.461Z,40.03
2022-10-01T07:30:48.820Z,40.17
2022-10-01T07:33:22.798Z,45.35
2022-10-01T07:35:53.220Z,47.15
2022-10-01T07:38:21.882Z,43.65
2022-10-01T07:40:53.164Z,45.95
2022-10-01T07:43:22.648Z,40.22
2022-10-01T07:45:52.625Z,45.25
2022-10-01T07:48:21.071Z,42.53
2022-10-01T07:50:49.801Z,44.42
2022-10-01T07:53:19.862Z,40.80
2022-10-01T07:55:48.243Z,45.28
2022-10-01T07:58:16.648Z,45.55
2022-10-01T08:00:45.149Z,45.75
2022-10-01T08:03:13.575Z,48.72
2022-10-01T08:05:43.315Z,47.33
2022-10-01T08:08:11.681Z,45.92
2022-10-01T08:10:41.486Z,47.80
2022-10-01T08:13:15.437Z,43.92
2022-10-01T08:15:44.506Z,46.45
2022-10-01T08:18:13.637Z,44.60
2022-10-01T08:20:42.311Z,46.65
2022-10-01T08:23:12.610Z,48.83
2022-10-01T08:25:43.875Z,44.15
2022-10-01T08:28:13.367Z,43.80
2022-10-01T08:30:43.966Z,47.33
2022-10-01T08:33:13.620Z,48.60
2022-10-01T08:35:43.707Z,49.30
2022-10-01T08:38:12.921Z,56.47
2022-10-01T08:40:47.474Z,48.03
2022-10-01T08:43:29.183Z,50.90
2022-10-01T08:45:59.991Z,50.33
2022-10-01T08:48:40.043Z,54.97
2022-10-01T08:51:11.348Z,47.10
2022-10-01T08:53:42.464Z,50.80
2022-10-01T08:56:22.899Z,47.00
2022-10-01T08:58:55.171Z,42.20
2022-10-01T09:01:23.876Z,44.03
2022-10-01T09:03:52.354Z,47.25
2022-10-01T09:06:22.931Z,39.05
2022-10-01T09:08:59.642Z,43.05
2022-10-01T09:11:45.745Z,46.28
2022-10-01T09:14:25.467Z,47.67
2022-10-01T09:17:01.344Z,45.03
2022-10-01T09:19:47.736Z,42.72
2022-10-01T09:22:33.262Z,39.20
2022-10-01T09:25:08.297Z,48.47
2022-10-01T09:27:39.575Z,38.90
2022-10-01T09:30:13.367Z,40.20
2022-10-01T09:32:45.027Z,41.25
2022-10-01T09:35:22.409Z,44.30
2022-10-01T09:37:55.135Z,47.20
2022-10-01T09:40:28.832Z,45.65
2022-10-01T09:42:59.162Z,39.58
2022-10-01T09:45:28.435Z,46.92
2022-10-01T09:48:01.682Z,45.95
2022-10-01T09:50:36.722Z,46.60
2022-10-01T09:53:05.670Z,46.97
2022-10-01T09:55:37.943Z,46.20
2022-10-01T09:58:13.677Z,50.65
2022-10-01T10:00:43.101Z,48.80
2022-10-01T10:03:11.702Z,49.90
2022-10-01T10:08:46.119Z,46.90
2022-10-01T10:11:22.387Z,54.25
2022-10-01T10:13:53.594Z,46.65
2022-10-01T10:16:26.623Z,53.88
2022-10-01T10:18:58.108Z,47.63
2022-10-01T10:21:29.860Z,45.75
2022-10-01T10:23:59.545Z,44.15
2022-10-01T10:26:32.701Z,53.40
2022-10-01T10:29:03.883Z,48.95
2022-10-01T10:31:40.868Z,48.90
2022-10-01T10:34:14.446Z,51.15
2022-10-01T10:36:43.047Z,54.20
2022-10-01T10:39:20.996Z,51.38
2022-10-01T10:41:50.638Z,53.20
2022-10-01T10:44:22.527Z,46.72
2022-10-01T10:46:52.013Z,51.42
2022-10-01T10:49:22.881Z,50.25
2022-10-01T10:51:54.152Z,52.28
2022-10-01T10:54:25.782Z,49.05
2022-10-01T10:57:02.539Z,47.67
2022-10-01T10:59:34.500Z,50.05
2022-10-01T11:02:04.895Z,56.25
2022-10-01T11:04:40.572Z,53.88
2022-10-01T11:07:09.083Z,48.72
2022-10-01T11:09:48.230Z,50.30
2022-10-01T11:12:26.693Z,52.40
2022-10-01T11:15:07.449Z,57.58
2022-10-01T11:17:51.327Z,55.13
2022-10-01T11:20:34.118Z,54.10
2022-10-01T11:23:16.814Z,55.65
2022-10-01T11:25:54.055Z,49.05
2022-10-01T11:28:33.440Z,45.85
2022-10-01T11:31:10.928Z,48.88
2022-10-01T11:33:47.126Z,48.70
2022-10-01T11:36:21.244Z,43.97
2022-10-01T11:38:53.758Z,40.85
2022-10-01T11:41:40.333Z,38.63
2022-10-01T11:44:13.900Z,42.45
2022-10-01T11:46:50.366Z,33.80
2022-10-01T11:49:28.096Z,34.88
2022-10-01T11:52:05.038Z,34.45
2022-10-01T11:54:35.962Z,30.65
2022-10-01T11:57:23.034Z,30.45
2022-10-01T11:59:54.770Z,31.23
2022-10-01T12:02:28.729Z,31.08
2022-10-01T12:04:59.854Z,31.17
2022-10-01T12:07:31.776Z,35.95
2022-10-01T12:10:07.676Z,33.00
2022-10-01T12:12:40.661Z,33.15
2022-10-01T12:15:13.963Z,39.47
2022-10-01T12:17:46.684Z,33.78
2022-10-01T12:20:23.781Z,31.98
2022-10-01T12:22:53.465Z,37.95
2022-10-01T12:25:25.206Z,33.40
2022-10-01T12:27:59.060Z,35.30
2022-10-01T12:30:30.188Z,34.10
2022-10-01T12:33:15.594Z,31.42
2022-10-01T12:35:58.044Z,30.20
2022-10-01T12:38:43.677Z,30.80
2022-10-01T12:41:23.081Z,27.05
2022-10-01T12:44:21.957Z,28.58
2022-10-01T12:46:58.208Z,34.28
2022-10-01T12:49:33.125Z,33.60
2022-10-01T12:52:07.372Z,32.72
2022-10-01T12:55:07.277Z,28.88
2022-10-01T12:57:43.143Z,27.48
2022-10-01T13:00:16.852Z,29.67
2022-10-01T13:03:23.715Z,32.50
2022-10-01T13:06:00.637Z,24.90
2022-10-01T13:08:38.308Z,26.80
2022-10-01T13:11:11.479Z,23.80
2022-10-01T13:13:40.335Z,25.30
2022-10-01T13:16:14.392Z,30.80
2022-10-01T13:18:54.564Z,25.92
2022-10-01T13:21:32.438Z,19.83
2022-10-01T13:24:03.196Z,18.15
2022-10-01T13:26:34.215Z,19.73
2022-10-01T13:29:10.084Z,19.33
2022-10-01T13:31:41.546Z,21.95
2022-10-01T13:34:36.238Z,21.17
2022-10-01T13:37:17.409Z,19.67
2022-10-01T13:39:46.170Z,19.65
2022-10-01T13:42:27.518Z,18.77
2022-10-01T13:44:58.492Z,19.00
2022-10-01T13:47:27.993Z,18.67
2022-10-01T13:49:59.185Z,19.65
2022-10-01T13:52:29.229Z,24.25
2022-10-01T13:54:58.229Z,21.60
2022-10-01T13:57:34.086Z,19.83
2022-10-01T14:00:20.685Z,21.20
2022-10-01T14:03:01.867Z,18.98
2022-10-01T14:05:35.137Z,19.58
2022-10-01T14:08:17.411Z,21.65
2022-10-01T14:11:07.676Z,21.73
2022-10-01T14:13:56.790Z,18.70
2022-10-01T14:16:25.390Z,19.52
2022-10-01T14:18:54.097Z,19.85
2022-10-01T14:21:47.448Z,16.77
2022-10-01T14:24:25.620Z,23.73
2022-10-01T14:26:55.929Z,22.60
2022-10-01T14:29:36.083Z,20.92
2022-10-01T14:32:13.804Z,18.80
2022-10-01T14:34:52.119Z,28.17
2022-10-01T14:37:20.984Z,21.05
2022-10-01T14:40:02.054Z,20.20
2022-10-01T14:42:32.057Z,21.00
2022-10-01T14:45:00.561Z,18.52
2022-10-01T14:47:35.643Z,20.42
2022-10-01T14:50:11.420Z,18.42
2022-10-01T14:52:42.553Z,17.33
2022-10-01T14:55:16.224Z,16.50
2022-10-01T14:57:46.970Z,18.58
2022-10-01T15:00:16.790Z,15.65
2022-10-01T15:02:47.093Z,15.75
2022-10-01T15:05:22.303Z,16.55
2022-10-01T15:07:51.020Z,18.20
2022-10-01T15:10:24.166Z,16.02
2022-10-01T15:12:53.506Z,19.58
2022-10-01T15:15:23.503Z,17.50
2022-10-01T15:17:52.168Z,16.38
2022-10-01T15:20:20.722Z,17.67
2022-10-01T15:22:50.151Z,16.75
2022-10-01T15:25:22.966Z,19.58
2022-10-01T15:27:54.226Z,16.88
2022-10-01T15:30:22.738Z,20.58
2022-10-01T15:32:51.977Z,18.25
2022-10-01T15:35:24.648Z,18.77
2022-10-01T15:37:53.825Z,20.67
2022-10-01T15:40:27.544Z,21.10
2022-10-01T15:43:24.314Z,17.58
2022-10-01T15:46:11.073Z,18.00
2022-10-01T15:48:39.588Z,22.60
2022-10-01T15:51:22.704Z,16.63
2022-10-01T15:53:52.718Z,21.00
2022-10-01T15:56:24.231Z,18.42
2022-10-01T15:58:54.744Z,22.50
2022-10-01T16:01:25.586Z,20.13
2022-10-01T16:03:56.710Z,20.13
2022-10-01T16:06:28.536Z,17.88
2022-10-01T16:09:06.256Z,21.25
2022-10-01T16:11:51.824Z,19.45
2022-10-01T16:14:30.042Z,23.75
2022-10-01T16:17:37.730Z,18.17
2022-10-01T16:20:50.486Z,20.55
2022-10-01T16:23:38.660Z,20.35
2022-10-01T16:26:24.395Z,18.48
2022-10-01T16:28:57.161Z,25.05
2022-10-01T16:31:29.080Z,23.30
2022-10-01T16:33:57.582Z,22.75
2022-10-01T16:36:26.663Z,21.00
2022-10-01T16:38:55.192Z,25.13
2022-10-01T16:41:24.987Z,23.05
2022-10-01T16:43:56.374Z,24.15
2022-10-01T16:46:24.772Z,21.45
2022-10-01T16:48:53.238Z,24.55
2022-10-01T16:51:22.757Z,17.95
2022-10-01T16:53:57.104Z,21.30
2022-10-01T16:56:27.303Z,15.60
2022-10-01T16:58:57.345Z,18.98
2022-10-01T17:01:32.896Z,25.50
2022-10-01T17:04:01.574Z,20.80
2022-10-01T17:06:29.962Z,24.27
2022-10-01T17:08:58.360Z,20.55
2022-10-01T17:11:27.344Z,20.73
2022-10-01T17:13:57.333Z,21.80
2022-10-01T17:16:25.836Z,23.23
2022-10-01T17:18:54.253Z,18.17
2022-10-01T17:21:22.669Z,20.02
2022-10-01T17:23:53.495Z,18.48
2022-10-01T17:26:22.033Z,24.10
2022-10-01T17:28:50.744Z,23.80
2022-10-01T17:31:20.543Z,24.95
2022-10-01T17:33:51.249Z,21.45
2022-10-01T17:36:19.912Z,20.60
2022-10-01T17:38:48.440Z,23.92
2022-10-01T17:41:17.235Z,25.58
2022-10-01T17:43:45.849Z,26.17
2022-10-01T17:46:14.286Z,22.98
2022-10-01T17:48:44.115Z,21.52
2022-10-01T17:51:14.527Z,23.33
2022-10-01T17:53:44.423Z,21.95
2022-10-01T17:56:15.802Z,23.52
2022-10-01T17:58:45.929Z,23.48
2022-10-01T18:01:19.876Z,21.25
2022-10-01T18:03:54.143Z,26.70
2022-10-01T18:06:23.753Z,24.63
2022-10-01T18:08:56.450Z,22.52
2022-10-01T18:11:25.856Z,19.65
2022-10-01T18:13:54.341Z,20.83
2022-10-01T18:16:23.196Z,21.58
2022-10-01T18:21:46.080Z,22.77
2022-10-01T18:24:14.637Z,20.92
2022-10-01T18:26:43.030Z,25.17
2022-10-01T18:29:13.407Z,27.50
2022-10-01T18:31:44.775Z,25.00
2022-10-01T18:34:19.840Z,28.73
2022-10-01T18:36:54.567Z,31.38
2022-10-01T18:39:29.809Z,23.83
2022-10-01T18:41:58.435Z,33.95
2022-10-01T18:44:27.272Z,28.17
2022-10-01T18:47:04.548Z,28.77
2022-10-01T18:49:55.959Z,27.80
2022-10-01T18:52:31.116Z,29.50
2022-10-01T18:55:25.412Z,29.45
2022-10-01T18:58:07.973Z,34.72
2022-10-01T19:00:41.813Z,33.60
2022-10-01T19:03:31.601Z,30.27
2022-10-01T19:06:13.648Z,27.35
2022-10-01T19:08:52.572Z,24.20
2022-10-01T19:11:27.336Z,19.15
2022-10-01T19:14:12.412Z,18.35
2022-10-01T19:16:47.830Z,16.90
2022-10-01T19:19:28.833Z,24.80
2022-10-01T19:22:01.945Z,21.10
2022-10-01T19:24:42.241Z,17.45
2022-10-01T19:27:19.489Z,18.83
2022-10-01T19:29:57.682Z,21.63
2022-10-01T19:32:28.716Z,20.23
2022-10-01T19:35:02.168Z,21.30
2022-10-01T19:37:37.985Z,19.88
2022-10-01T19:40:13.936Z,25.90
2022-10-01T19:42:46.466Z,23.13
2022-10-01T19:45:20.014Z,26.05
2022-10-01T19:47:53.863Z,26.13
2022-10-01T19:50:25.073Z,25.63
2022-10-01T19:52:58.187Z,28.52
2022-10-01T19:55:27.886Z,28.23
2022-10-01T19:57:56.296Z,20.85
2022-10-01T20:00:26.058Z,23.63
2022-10-01T20:03:00.818Z,25.73
2022-10-01T20:05:31.071Z,18.50
2022-10-01T20:08:07.552Z,19.63
2022-10-01T20:10:39.829Z,18.27
2022-10-01T20:13:23.679Z,19.58
2022-10-01T20:15:59.983Z,18.27
2022-10-01T20:18:35.272Z,19.73
2022-10-01T20:21:12.725Z,16.30
2022-10-01T20:23:47.180Z,16.02
2022-10-01T20:26:21.215Z,17.88
2022-10-01T20:28:58.538Z,21.25
2022-10-01T20:31:31.202Z,17.80
2022-10-01T20:34:04.057Z,18.85
2022-10-01T20:36:36.726Z,23.02
2022-10-01T20:39:11.902Z,20.42
2022-10-01T20:41:45.156Z,19.23
2022-10-01T20:44:16.772Z,20.40
2022-10-01T20:46:48.201Z,21.05
2022-10-01T20:49:23.334Z,19.88
2022-10-01T20:51:56.268Z,19.10
2022-10-01T20:54:32.755Z,23.15
2022-10-01T20:57:06.800Z,13.68
2022-10-01T20:59:39.273Z,16.02
2022-10-01T21:02:28.709Z,11.90
2022-10-01T21:05:05.760Z,15.00
2022-10-01T21:07:38.161Z,12.85
2022-10-01T21:10:17.286Z,14.32
2022-10-01T21:12:52.602Z,17.85
2022-10-01T21:15:26.528Z,11.27
2022-10-01T21:18:00.953Z,13.30
2022-10-01T21:23:24.753Z,16.80
2022-10-01T21:26:02.950Z,17.23
2022-10-01T21:28:45.009Z,17.05
2022-10-01T21:31:25.673Z,13.73
2022-10-01T21:33:55.605Z,14.00
2022-10-01T21:36:29.534Z,15.68
2022-10-01T21:39:01.904Z,15.70
2022-10-01T21:41:48.520Z,16.83
2022-10-01T21:44:44.807Z,13.05
2022-10-01T21:47:18.066Z,13.60
2022-10-01T21:49:53.048Z,13.85
2022-10-01T21:52:27.446Z,15.13
2022-10-01T21:55:17.235Z,14.73
2022-10-01T21:58:01.524Z,12.70
2022-10-01T22:00:30.823Z,12.77
2022-10-01T22:03:07.584Z,12.10
2022-10-01T22:05:40.701Z,14.10
2022-10-01T22:08:20.172Z,13.60
2022-10-01T22:10:51.271Z,11.23
2022-10-01T22:13:23.318Z,10.88
2022-10-01T22:15:54.515Z,13.45
2022-10-01T22:18:32.723Z,8.90
2022-10-01T22:21:02.217Z,8.48
2022-10-01T22:23:32.617Z,8.48
2022-10-01T22:26:05.079Z,11.18
2022-10-01T22:28:38.421Z,8.23
2022-10-01T22:31:11.494Z,8.88
2022-10-01T22:33:45.117Z,8.60
2022-10-01T22:36:17.278Z,9.57
2022-10-01T22:38:51.509Z,8.25
2022-10-01T22:41:23.984Z,7.72
2022-10-01T22:43:53.797Z,6.53
2022-10-01T22:46:47.184Z,7.82
2022-10-01T22:49:25.573Z,7.32
2022-10-01T22:52:04.113Z,6.32
2022-10-01T22:54:40.296Z,6.30
2022-10-01T22:57:17.261Z,6.65
2022-10-01T22:59:53.216Z,7.28
2022-10-01T23:02:26.694Z,7.45
2022-10-01T23:05:06.446Z,5.53
2022-10-01T23:07:43.809Z,5.93
2022-10-01T23:10:15.462Z,4.93
2022-10-01T23:13:01.321Z,5.85
2022-10-01T23:15:37.242Z,7.43
2022-10-01T23:18:11.141Z,4.97
2022-10-01T23:20:43.814Z,6.97
2022-10-01T23:23:25.603Z,4.82
2022-10-01T23:26:20.542Z,4.50
2022-10-01T23:28:59.404Z,6.38
2022-10-01T23:31:34.504Z,4.28
2022-10-01T23:34:15.670Z,7.53
2022-10-01T23:36:49.356Z,4.65
2022-10-01T23:39:34.815Z,4.07
2022-10-01T23:42:08.282Z,4.35
2022-10-01T23:44:40.438Z,4.30
2022-10-01T23:47:15.584Z,4.88
2022-10-01T23:49:46.388Z,7.03
2022-10-01T23:52:16.862Z,4.65
2022-10-01T23:54:49.414Z,4.75
2022-10-01T23:57:21.760Z,4.97
2022-10-01T23:59:54.126Z,4.00
